sensor_id;sensor_type;location;lat;lon;timestamp;P1;durP1;ratioP1;P2;durP2;ratioP2
19036;SDS011;9651;49.138;8.900;2023-05-28T00:03:37;6.57;;;4.15;;
19036;SDS011;9651;49.138;8.900;2023-05-28T00:07:42;7.80;;;3.15;;
19036;SDS011;9651;49.138;8.900;2023-05-28T00:11:44;6.63;;;3.30;;
19036;SDS011;9651;49.138;8.900;2023-05-28T00:15:46;5.97;;;3.58;;
19036;SDS011;9651;49.138;8.900;2023-05-28T00:19:48;7.70;;;3.55;;
19036;SDS011;9651;49.138;8.900;2023-05-28T00:23:51;5.93;;;3.42;;
19036;SDS011;9651;49.138;8.900;2023-05-28T00:27:53;6.40;;;3.35;;
19036;SDS011;9651;49.138;8.900;2023-05-28T00:31:55;7.60;;;3.88;;
19036;SDS011;9651;49.138;8.900;2023-05-28T00:35:57;5.75;;;3.28;;
19036;SDS011;9651;49.138;8.900;2023-05-28T00:40:01;8.63;;;3.53;;
19036;SDS011;9651;49.138;8.900;2023-05-28T00:44:04;8.60;;;3.00;;
19036;SDS011;9651;49.138;8.900;2023-05-28T00:48:06;8.77;;;2.83;;
19036;SDS011;9651;49.138;8.900;2023-05-28T00:52:08;10.65;;;3.90;;
19036;SDS011;9651;49.138;8.900;2023-05-28T00:56:12;5.90;;;3.47;;
19036;SDS011;9651;49.138;8.900;2023-05-28T01:00:17;9.10;;;3.53;;
19036;SDS011;9651;49.138;8.900;2023-05-28T01:04:19;10.57;;;3.05;;
19036;SDS011;9651;49.138;8.900;2023-05-28T01:08:22;5.90;;;3.30;;
19036;SDS011;9651;49.138;8.900;2023-05-28T01:12:25;6.50;;;3.50;;
19036;SDS011;9651;49.138;8.900;2023-05-28T01:16:28;7.40;;;3.70;;
19036;SDS011;9651;49.138;8.900;2023-05-28T01:20:31;7.43;;;3.60;;
19036;SDS011;9651;49.138;8.900;2023-05-28T01:24:36;6.82;;;3.15;;
19036;SDS011;9651;49.138;8.900;2023-05-28T01:28:39;6.78;;;3.53;;
19036;SDS011;9651;49.138;8.900;2023-05-28T01:32:46;6.38;;;3.80;;
19036;SDS011;9651;49.138;8.900;2023-05-28T01:36:50;5.82;;;3.15;;
19036;SDS011;9651;49.138;8.900;2023-05-28T01:40:57;9.73;;;3.38;;
19036;SDS011;9651;49.138;8.900;2023-05-28T01:45:00;7.32;;;3.65;;
19036;SDS011;9651;49.138;8.900;2023-05-28T01:49:08;9.52;;;3.40;;
19036;SDS011;9651;49.138;8.900;2023-05-28T01:53:11;7.32;;;3.88;;
19036;SDS011;9651;49.138;8.900;2023-05-28T01:57:14;6.32;;;3.50;;
19036;SDS011;9651;49.138;8.900;2023-05-28T02:01:18;5.80;;;3.50;;
19036;SDS011;9651;49.138;8.900;2023-05-28T02:05:28;5.38;;;3.10;;
19036;SDS011;9651;49.138;8.900;2023-05-28T02:09:29;9.83;;;3.87;;
19036;SDS011;9651;49.138;8.900;2023-05-28T02:13:33;6.35;;;3.20;;
19036;SDS011;9651;49.138;8.900;2023-05-28T02:17:35;6.70;;;3.13;;
19036;SDS011;9651;49.138;8.900;2023-05-28T02:21:37;9.52;;;3.50;;
19036;SDS011;9651;49.138;8.900;2023-05-28T02:25:39;7.53;;;3.72;;
19036;SDS011;9651;49.138;8.900;2023-05-28T02:29:42;9.02;;;3.13;;
19036;SDS011;9651;49.138;8.900;2023-05-28T02:33:44;5.60;;;3.53;;
19036;SDS011;9651;49.138;8.900;2023-05-28T02:37:47;6.25;;;2.92;;
19036;SDS011;9651;49.138;8.900;2023-05-28T02:41:50;10.27;;;3.47;;
19036;SDS011;9651;49.138;8.900;2023-05-28T02:45:53;8.48;;;3.10;;
19036;SDS011;9651;49.138;8.900;2023-05-28T02:49:58;8.18;;;3.60;;
19036;SDS011;9651;49.138;8.900;2023-05-28T02:54:04;10.30;;;3.92;;
19036;SDS011;9651;49.138;8.900;2023-05-28T02:58:06;8.35;;;3.30;;
19036;SDS011;9651;49.138;8.900;2023-05-28T03:02:09;7.28;;;3.35;;
19036;SDS011;9651;49.138;8.900;2023-05-28T03:06:11;6.18;;;3.85;;
19036;SDS011;9651;49.138;8.900;2023-05-28T03:10:20;7.82;;;3.25;;
19036;SDS011;9651;49.138;8.900;2023-05-28T03:14:23;6.05;;;3.28;;
19036;SDS011;9651;49.138;8.900;2023-05-28T03:18:26;9.83;;;4.00;;
19036;SDS011;9651;49.138;8.900;2023-05-28T03:22:28;9.52;;;3.90;;
19036;SDS011;9651;49.138;8.900;2023-05-28T03:26:31;9.15;;;3.80;;
19036;SDS011;9651;49.138;8.900;2023-05-28T03:30:33;6.00;;;3.72;;
19036;SDS011;9651;49.138;8.900;2023-05-28T03:34:36;7.40;;;3.40;;
19036;SDS011;9651;49.138;8.900;2023-05-28T03:38:38;7.93;;;3.90;;
19036;SDS011;9651;49.138;8.900;2023-05-28T03:42:40;8.45;;;4.05;;
19036;SDS011;9651;49.138;8.900;2023-05-28T03:46:42;6.15;;;3.72;;
19036;SDS011;9651;49.138;8.900;2023-05-28T03:50:46;6.13;;;3.72;;
19036;SDS011;9651;49.138;8.900;2023-05-28T03:54:48;7.35;;;3.65;;
19036;SDS011;9651;49.138;8.900;2023-05-28T03:58:50;8.88;;;4.50;;
19036;SDS011;9651;49.138;8.900;2023-05-28T04:02:52;6.13;;;3.45;;
19036;SDS011;9651;49.138;8.900;2023-05-28T04:06:56;12.18;;;3.78;;
19036;SDS011;9651;49.138;8.900;2023-05-28T04:10:58;9.65;;;3.60;;
19036;SDS011;9651;49.138;8.900;2023-05-28T04:15:00;6.60;;;3.58;;
19036;SDS011;9651;49.138;8.900;2023-05-28T04:19:04;7.28;;;3.58;;
19036;SDS011;9651;49.138;8.900;2023-05-28T04:23:07;6.85;;;3.65;;
19036;SDS011;9651;49.138;8.900;2023-05-28T04:27:09;7.73;;;3.80;;
19036;SDS011;9651;49.138;8.900;2023-05-28T04:31:11;11.85;;;4.10;;
19036;SDS011;9651;49.138;8.900;2023-05-28T04:35:13;5.22;;;3.92;;
19036;SDS011;9651;49.138;8.900;2023-05-28T04:39:16;6.50;;;3.60;;
19036;SDS011;9651;49.138;8.900;2023-05-28T04:43:19;8.53;;;3.50;;
19036;SDS011;9651;49.138;8.900;2023-05-28T04:47:21;6.35;;;3.88;;
19036;SDS011;9651;49.138;8.900;2023-05-28T04:51:25;8.55;;;3.00;;
19036;SDS011;9651;49.138;8.900;2023-05-28T04:55:28;7.13;;;3.45;;
19036;SDS011;9651;49.138;8.900;2023-05-28T04:59:30;5.03;;;3.10;;
19036;SDS011;9651;49.138;8.900;2023-05-28T05:03:34;8.18;;;3.60;;
19036;SDS011;9651;49.138;8.900;2023-05-28T05:07:38;9.00;;;3.55;;
19036;SDS011;9651;49.138;8.900;2023-05-28T05:11:42;7.85;;;3.63;;
19036;SDS011;9651;49.138;8.900;2023-05-28T05:15:45;7.30;;;3.75;;
19036;SDS011;9651;49.138;8.900;2023-05-28T05:19:47;4.82;;;3.30;;
19036;SDS011;9651;49.138;8.900;2023-05-28T05:23:49;9.68;;;3.88;;
19036;SDS011;9651;49.138;8.900;2023-05-28T05:27:53;8.00;;;3.53;;
19036;SDS011;9651;49.138;8.900;2023-05-28T05:31:55;5.72;;;3.33;;
19036;SDS011;9651;49.138;8.900;2023-05-28T05:35:59;6.82;;;3.97;;
19036;SDS011;9651;49.138;8.900;2023-05-28T05:40:31;7.00;;;4.13;;
19036;SDS011;9651;49.138;8.900;2023-05-28T05:44:48;6.45;;;3.30;;
19036;SDS011;9651;49.138;8.900;2023-05-28T05:48:50;7.97;;;4.00;;
19036;SDS011;9651;49.138;8.900;2023-05-28T05:52:52;8.75;;;4.13;;
19036;SDS011;9651;49.138;8.900;2023-05-28T05:56:55;7.35;;;3.72;;
19036;SDS011;9651;49.138;8.900;2023-05-28T06:01:00;11.10;;;3.63;;
19036;SDS011;9651;49.138;8.900;2023-05-28T06:05:02;8.07;;;3.70;;
19036;SDS011;9651;49.138;8.900;2023-05-28T06:09:24;5.70;;;3.78;;
19036;SDS011;9651;49.138;8.900;2023-05-28T06:13:29;5.93;;;3.30;;
19036;SDS011;9651;49.138;8.900;2023-05-28T06:17:32;8.90;;;3.60;;
19036;SDS011;9651;49.138;8.900;2023-05-28T06:21:35;5.57;;;3.55;;
19036;SDS011;9651;49.138;8.900;2023-05-28T06:25:38;7.65;;;3.97;;
19036;SDS011;9651;49.138;8.900;2023-05-28T06:29:40;8.43;;;3.60;;
19036;SDS011;9651;49.138;8.900;2023-05-28T06:33:44;6.40;;;3.63;;
19036;SDS011;9651;49.138;8.900;2023-05-28T06:37:46;5.70;;;3.33;;
19036;SDS011;9651;49.138;8.900;2023-05-28T06:41:48;4.88;;;3.20;;
19036;SDS011;9651;49.138;8.900;2023-05-28T06:46:05;7.70;;;3.67;;
19036;SDS011;9651;49.138;8.900;2023-05-28T06:50:10;9.20;;;4.20;;
19036;SDS011;9651;49.138;8.900;2023-05-28T06:54:12;7.18;;;3.63;;
19036;SDS011;9651;49.138;8.900;2023-05-28T06:58:15;8.63;;;4.05;;
19036;SDS011;9651;49.138;8.900;2023-05-28T07:02:35;7.30;;;4.28;;
19036;SDS011;9651;49.138;8.900;2023-05-28T07:06:55;7.50;;;3.75;;
19036;SDS011;9651;49.138;8.900;2023-05-28T07:11:06;7.60;;;3.88;;
19036;SDS011;9651;49.138;8.900;2023-05-28T07:15:08;8.07;;;4.25;;
19036;SDS011;9651;49.138;8.900;2023-05-28T07:19:11;10.77;;;3.67;;
19036;SDS011;9651;49.138;8.900;2023-05-28T07:23:14;6.03;;;3.72;;
19036;SDS011;9651;49.138;8.900;2023-05-28T07:27:16;7.10;;;4.22;;
19036;SDS011;9651;49.138;8.900;2023-05-28T07:31:18;6.18;;;3.83;;
19036;SDS011;9651;49.138;8.900;2023-05-28T07:35:20;6.15;;;3.60;;
19036;SDS011;9651;49.138;8.900;2023-05-28T07:39:24;5.82;;;3.60;;
19036;SDS011;9651;49.138;8.900;2023-05-28T07:43:27;12.38;;;4.35;;
19036;SDS011;9651;49.138;8.900;2023-05-28T07:47:32;9.38;;;4.82;;
19036;SDS011;9651;49.138;8.900;2023-05-28T07:51:40;7.32;;;3.67;;
19036;SDS011;9651;49.138;8.900;2023-05-28T07:55:46;6.72;;;3.60;;
19036;SDS011;9651;49.138;8.900;2023-05-28T07:59:49;5.75;;;3.55;;
19036;SDS011;9651;49.138;8.900;2023-05-28T08:03:52;5.43;;;3.42;;
19036;SDS011;9651;49.138;8.900;2023-05-28T08:07:58;7.55;;;3.60;;
19036;SDS011;9651;49.138;8.900;2023-05-28T08:12:02;7.32;;;3.63;;
19036;SDS011;9651;49.138;8.900;2023-05-28T08:16:06;7.05;;;4.00;;
19036;SDS011;9651;49.138;8.900;2023-05-28T08:20:29;4.78;;;3.53;;
19036;SDS011;9651;49.138;8.900;2023-05-28T08:24:43;7.82;;;3.78;;
19036;SDS011;9651;49.138;8.900;2023-05-28T08:28:47;8.02;;;3.42;;
19036;SDS011;9651;49.138;8.900;2023-05-28T08:32:49;4.88;;;3.58;;
19036;SDS011;9651;49.138;8.900;2023-05-28T08:36:51;6.47;;;4.22;;
19036;SDS011;9651;49.138;8.900;2023-05-28T08:41:00;7.68;;;3.88;;
19036;SDS011;9651;49.138;8.900;2023-05-28T08:45:05;9.00;;;4.32;;
19036;SDS011;9651;49.138;8.900;2023-05-28T08:49:09;6.28;;;3.75;;
19036;SDS011;9651;49.138;8.900;2023-05-28T08:53:13;7.10;;;3.55;;
19036;SDS011;9651;49.138;8.900;2023-05-28T08:57:19;7.60;;;4.13;;
19036;SDS011;9651;49.138;8.900;2023-05-28T09:01:32;5.45;;;3.50;;
19036;SDS011;9651;49.138;8.900;2023-05-28T09:05:40;9.95;;;3.90;;
19036;SDS011;9651;49.138;8.900;2023-05-28T09:09:42;9.98;;;4.57;;
19036;SDS011;9651;49.138;8.900;2023-05-28T09:13:45;8.13;;;4.20;;
19036;SDS011;9651;49.138;8.900;2023-05-28T09:17:50;6.28;;;3.80;;
19036;SDS011;9651;49.138;8.900;2023-05-28T09:21:57;8.15;;;3.70;;
19036;SDS011;9651;49.138;8.900;2023-05-28T09:26:27;8.57;;;4.40;;
19036;SDS011;9651;49.138;8.900;2023-05-28T09:30:36;8.15;;;3.88;;
19036;SDS011;9651;49.138;8.900;2023-05-28T09:34:41;9.50;;;3.72;;
19036;SDS011;9651;49.138;8.900;2023-05-28T09:38:43;5.80;;;3.80;;
19036;SDS011;9651;49.138;8.900;2023-05-28T09:42:45;5.90;;;4.15;;
19036;SDS011;9651;49.138;8.900;2023-05-28T09:46:47;4.53;;;3.25;;
19036;SDS011;9651;49.138;8.900;2023-05-28T09:50:50;8.02;;;3.72;;
19036;SDS011;9651;49.138;8.900;2023-05-28T09:54:54;7.20;;;4.00;;
19036;SDS011;9651;49.138;8.900;2023-05-28T09:58:56;7.18;;;3.90;;
19036;SDS011;9651;49.138;8.900;2023-05-28T10:03:16;5.57;;;3.67;;
19036;SDS011;9651;49.138;8.900;2023-05-28T10:07:27;6.28;;;4.00;;
19036;SDS011;9651;49.138;8.900;2023-05-28T10:11:38;7.07;;;4.20;;
19036;SDS011;9651;49.138;8.900;2023-05-28T10:15:44;10.00;;;4.20;;
19036;SDS011;9651;49.138;8.900;2023-05-28T10:19:47;7.00;;;3.70;;
19036;SDS011;9651;49.138;8.900;2023-05-28T10:23:50;8.60;;;4.05;;
19036;SDS011;9651;49.138;8.900;2023-05-28T10:27:57;8.45;;;3.80;;
19036;SDS011;9651;49.138;8.900;2023-05-28T10:32:02;12.48;;;4.00;;
19036;SDS011;9651;49.138;8.900;2023-05-28T10:36:08;7.25;;;3.80;;
19036;SDS011;9651;49.138;8.900;2023-05-28T10:40:19;6.68;;;3.20;;
19036;SDS011;9651;49.138;8.900;2023-05-28T10:44:23;5.65;;;3.47;;
19036;SDS011;9651;49.138;8.900;2023-05-28T10:48:25;8.27;;;3.35;;
19036;SDS011;9651;49.138;8.900;2023-05-28T10:52:31;8.40;;;3.20;;
19036;SDS011;9651;49.138;8.900;2023-05-28T10:56:34;8.10;;;3.80;;
19036;SDS011;9651;49.138;8.900;2023-05-28T11:00:39;5.40;;;3.65;;
19036;SDS011;9651;49.138;8.900;2023-05-28T11:04:41;7.20;;;3.90;;
19036;SDS011;9651;49.138;8.900;2023-05-28T11:08:44;5.53;;;3.22;;
19036;SDS011;9651;49.138;8.900;2023-05-28T11:12:49;8.07;;;4.32;;
19036;SDS011;9651;49.138;8.900;2023-05-28T11:16:52;6.85;;;3.85;;
19036;SDS011;9651;49.138;8.900;2023-05-28T11:21:01;4.63;;;3.28;;
19036;SDS011;9651;49.138;8.900;2023-05-28T11:25:06;7.80;;;4.32;;
19036;SDS011;9651;49.138;8.900;2023-05-28T11:29:11;5.75;;;3.90;;
19036;SDS011;9651;49.138;8.900;2023-05-28T11:33:14;6.53;;;3.95;;
19036;SDS011;9651;49.138;8.900;2023-05-28T11:37:16;6.05;;;3.75;;
19036;SDS011;9651;49.138;8.900;2023-05-28T11:41:25;5.90;;;3.47;;
19036;SDS011;9651;49.138;8.900;2023-05-28T11:45:34;6.35;;;3.63;;
19036;SDS011;9651;49.138;8.900;2023-05-28T11:49:38;6.43;;;4.20;;
19036;SDS011;9651;49.138;8.900;2023-05-28T11:53:40;5.57;;;3.80;;
19036;SDS011;9651;49.138;8.900;2023-05-28T11:57:49;8.30;;;3.47;;
19036;SDS011;9651;49.138;8.900;2023-05-28T12:02:06;8.63;;;4.22;;
19036;SDS011;9651;49.138;8.900;2023-05-28T12:06:10;6.85;;;4.10;;
19036;SDS011;9651;49.138;8.900;2023-05-28T12:10:13;12.88;;;3.97;;
19036;SDS011;9651;49.138;8.900;2023-05-28T12:14:16;7.57;;;3.80;;
19036;SDS011;9651;49.138;8.900;2023-05-28T12:18:21;6.03;;;3.40;;
19036;SDS011;9651;49.138;8.900;2023-05-28T12:22:23;6.25;;;4.00;;
19036;SDS011;9651;49.138;8.900;2023-05-28T12:26:25;6.57;;;3.42;;
19036;SDS011;9651;49.138;8.900;2023-05-28T12:30:27;5.40;;;3.88;;
19036;SDS011;9651;49.138;8.900;2023-05-28T12:34:30;7.60;;;4.40;;
19036;SDS011;9651;49.138;8.900;2023-05-28T12:38:32;4.80;;;3.55;;
19036;SDS011;9651;49.138;8.900;2023-05-28T12:42:34;5.78;;;3.72;;
19036;SDS011;9651;49.138;8.900;2023-05-28T12:46:36;7.07;;;3.72;;
19036;SDS011;9651;49.138;8.900;2023-05-28T12:50:39;4.78;;;3.95;;
19036;SDS011;9651;49.138;8.900;2023-05-28T12:54:41;7.10;;;4.00;;
19036;SDS011;9651;49.138;8.900;2023-05-28T12:58:43;6.85;;;3.97;;
19036;SDS011;9651;49.138;8.900;2023-05-28T13:02:45;11.40;;;4.38;;
19036;SDS011;9651;49.138;8.900;2023-05-28T13:06:48;5.63;;;3.72;;
19036;SDS011;9651;49.138;8.900;2023-05-28T13:10:51;6.80;;;4.47;;
19036;SDS011;9651;49.138;8.900;2023-05-28T13:14:53;6.32;;;4.13;;
19036;SDS011;9651;49.138;8.900;2023-05-28T13:18:55;5.78;;;4.13;;
19036;SDS011;9651;49.138;8.900;2023-05-28T13:22:58;5.47;;;4.10;;
19036;SDS011;9651;49.138;8.900;2023-05-28T13:27:00;7.90;;;3.95;;
19036;SDS011;9651;49.138;8.900;2023-05-28T13:31:02;8.05;;;4.20;;
19036;SDS011;9651;49.138;8.900;2023-05-28T13:35:04;6.75;;;4.18;;
19036;SDS011;9651;49.138;8.900;2023-05-28T13:39:08;8.35;;;4.90;;
19036;SDS011;9651;49.138;8.900;2023-05-28T13:43:10;5.25;;;4.32;;
19036;SDS011;9651;49.138;8.900;2023-05-28T13:47:15;5.47;;;4.68;;
19036;SDS011;9651;49.138;8.900;2023-05-28T13:51:17;7.25;;;4.47;;
19036;SDS011;9651;49.138;8.900;2023-05-28T13:55:21;9.13;;;4.88;;
19036;SDS011;9651;49.138;8.900;2023-05-28T13:59:23;5.88;;;4.60;;
19036;SDS011;9651;49.138;8.900;2023-05-28T14:03:24;7.82;;;4.75;;
19036;SDS011;9651;49.138;8.900;2023-05-28T14:07:26;9.02;;;5.05;;
19036;SDS011;9651;49.138;8.900;2023-05-28T14:11:29;6.57;;;4.32;;
19036;SDS011;9651;49.138;8.900;2023-05-28T14:15:31;7.38;;;5.55;;
19036;SDS011;9651;49.138;8.900;2023-05-28T14:19:33;6.57;;;5.00;;
19036;SDS011;9651;49.138;8.900;2023-05-28T14:23:35;6.22;;;4.80;;
19036;SDS011;9651;49.138;8.900;2023-05-28T14:27:38;7.15;;;5.72;;
19036;SDS011;9651;49.138;8.900;2023-05-28T14:31:40;5.68;;;4.93;;
19036;SDS011;9651;49.138;8.900;2023-05-28T14:35:43;7.93;;;5.15;;
19036;SDS011;9651;49.138;8.900;2023-05-28T14:39:44;7.32;;;5.45;;
19036;SDS011;9651;49.138;8.900;2023-05-28T14:43:48;7.22;;;5.80;;
19036;SDS011;9651;49.138;8.900;2023-05-28T14:47:50;7.68;;;5.03;;
19036;SDS011;9651;49.138;8.900;2023-05-28T14:51:53;7.35;;;4.70;;
19036;SDS011;9651;49.138;8.900;2023-05-28T14:55:56;7.38;;;4.53;;
19036;SDS011;9651;49.138;8.900;2023-05-28T15:00:00;5.97;;;4.32;;
19036;SDS011;9651;49.138;8.900;2023-05-28T15:04:06;7.30;;;5.15;;
19036;SDS011;9651;49.138;8.900;2023-05-28T15:08:08;10.07;;;5.22;;
19036;SDS011;9651;49.138;8.900;2023-05-28T15:12:11;7.85;;;4.32;;
19036;SDS011;9651;49.138;8.900;2023-05-28T15:16:14;7.82;;;4.90;;
19036;SDS011;9651;49.138;8.900;2023-05-28T15:20:16;6.53;;;4.30;;
19036;SDS011;9651;49.138;8.900;2023-05-28T15:24:18;7.80;;;4.38;;
19036;SDS011;9651;49.138;8.900;2023-05-28T15:28:21;6.72;;;4.78;;
19036;SDS011;9651;49.138;8.900;2023-05-28T15:32:25;7.13;;;4.63;;
19036;SDS011;9651;49.138;8.900;2023-05-28T15:36:27;8.18;;;4.75;;
19036;SDS011;9651;49.138;8.900;2023-05-28T15:40:31;8.07;;;4.63;;
19036;SDS011;9651;49.138;8.900;2023-05-28T15:44:33;9.50;;;5.45;;
19036;SDS011;9651;49.138;8.900;2023-05-28T15:48:37;8.90;;;6.72;;
19036;SDS011;9651;49.138;8.900;2023-05-28T15:52:39;7.25;;;4.80;;
19036;SDS011;9651;49.138;8.900;2023-05-28T15:56:41;6.63;;;4.75;;
19036;SDS011;9651;49.138;8.900;2023-05-28T16:00:43;5.13;;;4.13;;
19036;SDS011;9651;49.138;8.900;2023-05-28T16:04:48;7.03;;;5.27;;
19036;SDS011;9651;49.138;8.900;2023-05-28T16:08:50;6.70;;;4.18;;
19036;SDS011;9651;49.138;8.900;2023-05-28T16:12:52;6.78;;;4.50;;
19036;SDS011;9651;49.138;8.900;2023-05-28T16:16:59;8.43;;;4.90;;
19036;SDS011;9651;49.138;8.900;2023-05-28T16:21:04;5.68;;;3.85;;
19036;SDS011;9651;49.138;8.900;2023-05-28T16:25:07;6.43;;;4.20;;
19036;SDS011;9651;49.138;8.900;2023-05-28T16:29:10;8.50;;;4.05;;
19036;SDS011;9651;49.138;8.900;2023-05-28T16:33:12;4.60;;;3.42;;
19036;SDS011;9651;49.138;8.900;2023-05-28T16:37:16;6.15;;;4.38;;
19036;SDS011;9651;49.138;8.900;2023-05-28T16:41:18;5.93;;;4.30;;
19036;SDS011;9651;49.138;8.900;2023-05-28T16:45:22;6.68;;;4.88;;
19036;SDS011;9651;49.138;8.900;2023-05-28T16:49:24;8.23;;;4.32;;
19036;SDS011;9651;49.138;8.900;2023-05-28T16:53:27;5.60;;;4.20;;
19036;SDS011;9651;49.138;8.900;2023-05-28T16:57:29;9.63;;;5.15;;
19036;SDS011;9651;49.138;8.900;2023-05-28T17:01:31;8.73;;;4.60;;
19036;SDS011;9651;49.138;8.900;2023-05-28T17:05:33;9.70;;;4.63;;
19036;SDS011;9651;49.138;8.900;2023-05-28T17:09:36;4.85;;;3.90;;
19036;SDS011;9651;49.138;8.900;2023-05-28T17:13:39;6.45;;;4.32;;
19036;SDS011;9651;49.138;8.900;2023-05-28T17:17:41;9.70;;;5.32;;
19036;SDS011;9651;49.138;8.900;2023-05-28T17:21:42;5.78;;;3.97;;
19036;SDS011;9651;49.138;8.900;2023-05-28T17:25:46;7.57;;;4.30;;
19036;SDS011;9651;49.138;8.900;2023-05-28T17:29:48;7.15;;;4.25;;
19036;SDS011;9651;49.138;8.900;2023-05-28T17:33:50;5.82;;;3.88;;
19036;SDS011;9651;49.138;8.900;2023-05-28T17:37:52;4.63;;;3.45;;
19036;SDS011;9651;49.138;8.900;2023-05-28T17:41:55;7.57;;;4.13;;
19036;SDS011;9651;49.138;8.900;2023-05-28T17:45:57;7.93;;;4.22;;
19036;SDS011;9651;49.138;8.900;2023-05-28T17:50:03;7.68;;;4.05;;
19036;SDS011;9651;49.138;8.900;2023-05-28T17:54:06;5.53;;;4.10;;
19036;SDS011;9651;49.138;8.900;2023-05-28T17:58:09;5.63;;;3.70;;
19036;SDS011;9651;49.138;8.900;2023-05-28T18:02:11;6.85;;;4.45;;
19036;SDS011;9651;49.138;8.900;2023-05-28T18:06:13;6.60;;;3.55;;
19036;SDS011;9651;49.138;8.900;2023-05-28T18:10:15;6.25;;;3.90;;
19036;SDS011;9651;49.138;8.900;2023-05-28T18:14:18;9.32;;;4.35;;
19036;SDS011;9651;49.138;8.900;2023-05-28T18:18:20;5.85;;;3.50;;
19036;SDS011;9651;49.138;8.900;2023-05-28T18:22:22;6.78;;;3.90;;
19036;SDS011;9651;49.138;8.900;2023-05-28T18:26:25;6.03;;;3.55;;
19036;SDS011;9651;49.138;8.900;2023-05-28T18:30:28;6.78;;;3.88;;
19036;SDS011;9651;49.138;8.900;2023-05-28T18:34:30;8.05;;;3.72;;
19036;SDS011;9651;49.138;8.900;2023-05-28T18:38:32;6.75;;;3.88;;
19036;SDS011;9651;49.138;8.900;2023-05-28T18:42:34;9.40;;;4.28;;
19036;SDS011;9651;49.138;8.900;2023-05-28T18:46:37;9.55;;;4.32;;
19036;SDS011;9651;49.138;8.900;2023-05-28T18:50:39;8.00;;;4.43;;
19036;SDS011;9651;49.138;8.900;2023-05-28T18:54:40;10.25;;;3.80;;
19036;SDS011;9651;49.138;8.900;2023-05-28T18:58:42;7.35;;;4.05;;
19036;SDS011;9651;49.138;8.900;2023-05-28T19:02:45;6.05;;;3.67;;
19036;SDS011;9651;49.138;8.900;2023-05-28T19:06:47;5.90;;;3.42;;
19036;SDS011;9651;49.138;8.900;2023-05-28T19:10:49;7.00;;;3.95;;
19036;SDS011;9651;49.138;8.900;2023-05-28T19:14:51;6.18;;;3.83;;
19036;SDS011;9651;49.138;8.900;2023-05-28T19:18:54;7.22;;;5.03;;
19036;SDS011;9651;49.138;8.900;2023-05-28T19:22:56;5.97;;;3.88;;
19036;SDS011;9651;49.138;8.900;2023-05-28T19:26:58;8.38;;;4.25;;
19036;SDS011;9651;49.138;8.900;2023-05-28T19:31:00;7.25;;;4.15;;
19036;SDS011;9651;49.138;8.900;2023-05-28T19:35:04;9.48;;;4.53;;
19036;SDS011;9651;49.138;8.900;2023-05-28T19:39:06;5.80;;;4.13;;
19036;SDS011;9651;49.138;8.900;2023-05-28T19:43:09;7.60;;;3.97;;
19036;SDS011;9651;49.138;8.900;2023-05-28T19:47:11;8.35;;;3.65;;
19036;SDS011;9651;49.138;8.900;2023-05-28T19:51:14;6.22;;;4.10;;
19036;SDS011;9651;49.138;8.900;2023-05-28T19:55:17;6.75;;;4.45;;
19036;SDS011;9651;49.138;8.900;2023-05-28T19:59:19;8.45;;;4.45;;
19036;SDS011;9651;49.138;8.900;2023-05-28T20:03:22;5.68;;;3.70;;
19036;SDS011;9651;49.138;8.900;2023-05-28T20:07:25;8.50;;;4.60;;
19036;SDS011;9651;49.138;8.900;2023-05-28T20:11:27;6.55;;;4.35;;
19036;SDS011;9651;49.138;8.900;2023-05-28T20:15:29;9.25;;;4.18;;
19036;SDS011;9651;49.138;8.900;2023-05-28T20:19:32;6.60;;;4.20;;
19036;SDS011;9651;49.138;8.900;2023-05-28T20:23:35;5.55;;;3.80;;
19036;SDS011;9651;49.138;8.900;2023-05-28T20:27:37;8.18;;;4.38;;
19036;SDS011;9651;49.138;8.900;2023-05-28T20:31:39;7.20;;;3.97;;
19036;SDS011;9651;49.138;8.900;2023-05-28T20:35:41;9.18;;;4.78;;
19036;SDS011;9651;49.138;8.900;2023-05-28T20:39:44;7.90;;;4.70;;
19036;SDS011;9651;49.138;8.900;2023-05-28T20:43:47;9.35;;;4.25;;
19036;SDS011;9651;49.138;8.900;2023-05-28T20:47:49;8.95;;;4.03;;
19036;SDS011;9651;49.138;8.900;2023-05-28T20:51:51;6.40;;;4.00;;
19036;SDS011;9651;49.138;8.900;2023-05-28T20:55:54;10.52;;;5.15;;
19036;SDS011;9651;49.138;8.900;2023-05-28T20:59:56;9.15;;;4.50;;
19036;SDS011;9651;49.138;8.900;2023-05-28T21:03:58;7.35;;;4.13;;
19036;SDS011;9651;49.138;8.900;2023-05-28T21:08:02;8.00;;;4.05;;
19036;SDS011;9651;49.138;8.900;2023-05-28T21:12:06;7.30;;;4.43;;
19036;SDS011;9651;49.138;8.900;2023-05-28T21:16:08;7.35;;;4.43;;
19036;SDS011;9651;49.138;8.900;2023-05-28T21:20:10;8.27;;;4.15;;
19036;SDS011;9651;49.138;8.900;2023-05-28T21:24:12;5.55;;;4.15;;
19036;SDS011;9651;49.138;8.900;2023-05-28T21:28:16;7.82;;;4.68;;
19036;SDS011;9651;49.138;8.900;2023-05-28T21:32:18;9.23;;;4.55;;
19036;SDS011;9651;49.138;8.900;2023-05-28T21:36:19;7.72;;;4.15;;
19036;SDS011;9651;49.138;8.900;2023-05-28T21:40:21;7.82;;;4.47;;
19036;SDS011;9651;49.138;8.900;2023-05-28T21:44:25;6.05;;;4.55;;
19036;SDS011;9651;49.138;8.900;2023-05-28T21:48:26;7.40;;;4.78;;
19036;SDS011;9651;49.138;8.900;2023-05-28T21:52:28;7.97;;;4.85;;
19036;SDS011;9651;49.138;8.900;2023-05-28T21:56:32;9.02;;;4.53;;
19036;SDS011;9651;49.138;8.900;2023-05-28T22:00:36;10.25;;;5.07;;
19036;SDS011;9651;49.138;8.900;2023-05-28T22:04:39;10.52;;;4.45;;
19036;SDS011;9651;49.138;8.900;2023-05-28T22:08:42;10.48;;;5.32;;
19036;SDS011;9651;49.138;8.900;2023-05-28T22:12:45;8.40;;;4.43;;
19036;SDS011;9651;49.138;8.900;2023-05-28T22:16:49;9.20;;;5.10;;
19036;SDS011;9651;49.138;8.900;2023-05-28T22:20:52;7.38;;;4.45;;
19036;SDS011;9651;49.138;8.900;2023-05-28T22:24:57;7.88;;;4.85;;
19036;SDS011;9651;49.138;8.900;2023-05-28T22:28:59;7.70;;;4.47;;
19036;SDS011;9651;49.138;8.900;2023-05-28T22:33:02;8.68;;;5.03;;
19036;SDS011;9651;49.138;8.900;2023-05-28T22:37:04;8.05;;;4.93;;
19036;SDS011;9651;49.138;8.900;2023-05-28T22:41:06;9.40;;;4.90;;
19036;SDS011;9651;49.138;8.900;2023-05-28T22:45:08;8.27;;;4.38;;
19036;SDS011;9651;49.138;8.900;2023-05-28T22:49:13;7.97;;;4.60;;
19036;SDS011;9651;49.138;8.900;2023-05-28T22:53:15;9.15;;;4.80;;
19036;SDS011;9651;49.138;8.900;2023-05-28T22:57:18;7.95;;;4.97;;
19036;SDS011;9651;49.138;8.900;2023-05-28T23:01:19;6.45;;;4.38;;
19036;SDS011;9651;49.138;8.900;2023-05-28T23:05:24;9.55;;;5.20;;
19036;SDS011;9651;49.138;8.900;2023-05-28T23:09:27;9.48;;;4.55;;
19036;SDS011;9651;49.138;8.900;2023-05-28T23:13:29;9.65;;;4.72;;
19036;SDS011;9651;49.138;8.900;2023-05-28T23:17:31;9.43;;;5.13;;
19036;SDS011;9651;49.138;8.900;2023-05-28T23:21:34;7.38;;;4.07;;
19036;SDS011;9651;49.138;8.900;2023-05-28T23:25:37;8.30;;;4.70;;
19036;SDS011;9651;49.138;8.900;2023-05-28T23:29:39;14.00;;;5.10;;
19036;SDS011;9651;49.138;8.900;2023-05-28T23:33:41;6.82;;;4.60;;
19036;SDS011;9651;49.138;8.900;2023-05-28T23:37:45;7.80;;;4.57;;
19036;SDS011;9651;49.138;8.900;2023-05-28T23:41:47;9.48;;;4.90;;
19036;SDS011;9651;49.138;8.900;2023-05-28T23:45:49;9.35;;;4.07;;
19036;SDS011;9651;49.138;8.900;2023-05-28T23:49:51;6.82;;;4.28;;
19036;SDS011;9651;49.138;8.900;2023-05-28T23:53:54;7.97;;;4.18;;
19036;SDS011;9651;49.138;8.900;2023-05-28T23:57:56;9.13;;;4.72;;
